sensor_id;sensor_type;location;lat;lon;timestamp;pressure;altitude;pressure_sealevel;temperature;humidity
77979;BME280;67169;50.268;8.694;2024-02-21T00:02:12;100557.88;;;5.86;100.00
77979;BME280;67169;50.268;8.694;2024-02-21T00:04:43;100561.44;;;5.83;100.00
77979;BME280;67169;50.268;8.694;2024-02-21T00:07:09;100558.78;;;5.82;100.00
77979;BME280;67169;50.268;8.694;2024-02-21T00:09:37;100563.22;;;5.83;100.00
77979;BME280;67169;50.268;8.694;2024-02-21T00:12:04;100555.25;;;5.78;100.00
77979;BME280;67169;50.268;8.694;2024-02-21T00:14:31;100546.41;;;5.68;100.00
77979;BME280;67169;50.268;8.694;2024-02-21T00:16:57;100570.38;;;5.79;100.00
77979;BME280;67169;50.268;8.694;2024-02-21T00:19:24;100563.25;;;5.77;100.00
77979;BME280;67169;50.268;8.694;2024-02-21T00:21:50;100542.88;;;5.63;100.00
77979;BME280;67169;50.268;8.694;2024-02-21T00:24:17;100553.47;;;5.74;100.00
77979;BME280;67169;50.268;8.694;2024-02-21T00:26:45;100540.13;;;5.77;100.00
77979;BME280;67169;50.268;8.694;2024-02-21T00:29:11;100532.16;;;5.72;100.00
77979;BME280;67169;50.268;8.694;2024-02-21T00:31:38;100521.47;;;5.76;100.00
77979;BME280;67169;50.268;8.694;2024-02-21T00:34:04;100513.44;;;5.77;100.00
77979;BME280;67169;50.268;8.694;2024-02-21T00:36:30;100527.66;;;5.79;100.00
77979;BME280;67169;50.268;8.694;2024-02-21T00:38:57;100512.50;;;5.83;100.00
77979;BME280;67169;50.268;8.694;2024-02-21T00:41:23;100501.88;;;5.78;100.00
77979;BME280;67169;50.268;8.694;2024-02-21T00:43:51;100502.75;;;5.82;100.00
77979;BME280;67169;50.268;8.694;2024-02-21T00:46:18;100489.44;;;5.71;100.00
77979;BME280;67169;50.268;8.694;2024-02-21T00:48:44;100496.53;;;5.77;100.00
77979;BME280;67169;50.268;8.694;2024-02-21T00:51:11;100489.44;;;5.72;100.00
77979;BME280;67169;50.268;8.694;2024-02-21T00:53:37;100497.44;;;5.71;100.00
77979;BME280;67169;50.268;8.694;2024-02-21T00:56:04;100491.22;;;5.70;100.00
77979;BME280;67169;50.268;8.694;2024-02-21T00:58:31;100501.91;;;5.70;100.00
77979;BME280;67169;50.268;8.694;2024-02-21T01:01:00;100502.84;;;5.68;100.00
77979;BME280;67169;50.268;8.694;2024-02-21T01:03:26;100512.63;;;5.64;100.00
77979;BME280;67169;50.268;8.694;2024-02-21T01:05:53;100524.19;;;5.68;100.00
77979;BME280;67169;50.268;8.694;2024-02-21T01:08:19;100517.09;;;5.62;100.00
77979;BME280;67169;50.268;8.694;2024-02-21T01:10:46;100510.84;;;5.63;100.00
77979;BME280;67169;50.268;8.694;2024-02-21T01:13:12;100514.41;;;5.65;100.00
77979;BME280;67169;50.268;8.694;2024-02-21T01:15:39;100470.06;;;5.40;100.00
77979;BME280;67169;50.268;8.694;2024-02-21T01:18:07;100519.75;;;5.65;100.00
77979;BME280;67169;50.268;8.694;2024-02-21T01:20:33;100515.31;;;5.63;100.00
77979;BME280;67169;50.268;8.694;2024-02-21T01:23:00;100511.72;;;5.67;100.00
77979;BME280;67169;50.268;8.694;2024-02-21T01:25:26;100499.28;;;5.64;100.00
77979;BME280;67169;50.268;8.694;2024-02-21T01:27:53;100507.25;;;5.67;100.00
77979;BME280;67169;50.268;8.694;2024-02-21T01:30:19;100493.97;;;5.60;100.00
77979;BME280;67169;50.268;8.694;2024-02-21T01:32:46;100503.72;;;5.64;100.00
77979;BME280;67169;50.268;8.694;2024-02-21T01:35:14;100492.19;;;5.62;100.00
77979;BME280;67169;50.268;8.694;2024-02-21T01:37:40;100487.75;;;5.59;100.00
77979;BME280;67169;50.268;8.694;2024-02-21T01:40:08;100485.06;;;5.61;100.00
77979;BME280;67169;50.268;8.694;2024-02-21T01:42:38;100478.88;;;5.59;100.00
77979;BME280;67169;50.268;8.694;2024-02-21T01:45:05;100473.56;;;5.53;100.00
77979;BME280;67169;50.268;8.694;2024-02-21T01:47:31;100482.44;;;5.56;100.00
77979;BME280;67169;50.268;8.694;2024-02-21T01:49:59;100476.22;;;5.56;100.00
77979;BME280;67169;50.268;8.694;2024-02-21T01:52:28;100471.78;;;5.53;100.00
77979;BME280;67169;50.268;8.694;2024-02-21T01:54:56;100470.94;;;5.48;100.00
77979;BME280;67169;50.268;8.694;2024-02-21T01:57:22;100470.03;;;5.51;100.00
77979;BME280;67169;50.268;8.694;2024-02-21T01:59:49;100458.50;;;5.44;100.00
77979;BME280;67169;50.268;8.694;2024-02-21T02:02:16;100461.19;;;5.44;100.00
77979;BME280;67169;50.268;8.694;2024-02-21T02:04:44;100478.94;;;5.48;100.00
77979;BME280;67169;50.268;8.694;2024-02-21T02:07:11;100470.03;;;5.51;100.00
77979;BME280;67169;50.268;8.694;2024-02-21T02:09:39;100454.94;;;5.45;100.00
77979;BME280;67169;50.268;8.694;2024-02-21T02:12:06;100469.13;;;5.52;100.00
77979;BME280;67169;50.268;8.694;2024-02-21T02:14:32;100450.44;;;5.50;100.00
77979;BME280;67169;50.268;8.694;2024-02-21T02:16:59;100461.13;;;5.52;100.00
77979;BME280;67169;50.268;8.694;2024-02-21T02:19:25;100459.28;;;5.57;100.00
77979;BME280;67169;50.268;8.694;2024-02-21T02:21:56;100458.41;;;5.59;100.00
77979;BME280;67169;50.268;8.694;2024-02-21T02:24:26;100451.28;;;5.61;100.00
77979;BME280;67169;50.268;8.694;2024-02-21T02:26:53;100437.94;;;5.61;100.00
77979;BME280;67169;50.268;8.694;2024-02-21T02:29:19;100424.59;;;5.60;100.00
77979;BME280;67169;50.268;8.694;2024-02-21T02:31:46;100437.81;;;5.74;100.00
77979;BME280;67169;50.268;8.694;2024-02-21T02:34:12;100426.25;;;5.75;100.00
77979;BME280;67169;50.268;8.694;2024-02-21T02:36:38;100411.22;;;5.66;100.00
77979;BME280;67169;50.268;8.694;2024-02-21T02:39:05;100418.22;;;5.78;100.00
77979;BME280;67169;50.268;8.694;2024-02-21T02:41:35;100419.06;;;5.81;100.00
77979;BME280;67169;50.268;8.694;2024-02-21T02:44:02;100421.72;;;5.86;100.00
77979;BME280;67169;50.268;8.694;2024-02-21T02:46:29;100412.88;;;5.82;100.00
77979;BME280;67169;50.268;8.694;2024-02-21T02:48:55;100405.72;;;5.84;100.00
77979;BME280;67169;50.268;8.694;2024-02-21T02:51:22;100402.16;;;5.85;100.00
77979;BME280;67169;50.268;8.694;2024-02-21T02:53:48;100382.69;;;5.72;100.00
77979;BME280;67169;50.268;8.694;2024-02-21T02:56:14;100394.19;;;5.81;100.00
77979;BME280;67169;50.268;8.694;2024-02-21T02:58:43;100397.72;;;5.81;100.00
77979;BME280;67169;50.268;8.694;2024-02-21T03:01:10;100396.81;;;5.84;100.00
77979;BME280;67169;50.268;8.694;2024-02-21T03:03:36;100397.72;;;5.83;100.00
77979;BME280;67169;50.268;8.694;2024-02-21T03:06:03;100385.34;;;5.76;100.00
77979;BME280;67169;50.268;8.694;2024-02-21T03:08:30;100391.50;;;5.81;100.00
77979;BME280;67169;50.268;8.694;2024-02-21T03:10:57;100393.28;;;5.83;100.00
77979;BME280;67169;50.268;8.694;2024-02-21T03:13:24;100384.34;;;5.89;100.00
77979;BME280;67169;50.268;8.694;2024-02-21T03:15:52;100380.81;;;5.81;100.00
77979;BME280;67169;50.268;8.694;2024-02-21T03:18:18;100363.00;;;5.84;100.00
77979;BME280;67169;50.268;8.694;2024-02-21T03:20:45;100361.22;;;5.86;100.00
77979;BME280;67169;50.268;8.694;2024-02-21T03:23:12;100343.50;;;5.79;100.00
77979;BME280;67169;50.268;8.694;2024-02-21T03:25:38;100354.97;;;5.87;100.00
77979;BME280;67169;50.268;8.694;2024-02-21T03:28:05;100360.28;;;5.90;100.00
77979;BME280;67169;50.268;8.694;2024-02-21T03:30:31;100354.94;;;5.90;100.00
77979;BME280;67169;50.268;8.694;2024-02-21T03:33:00;100353.19;;;5.92;100.00
77979;BME280;67169;50.268;8.694;2024-02-21T03:35:27;100347.84;;;5.92;100.00
77979;BME280;67169;50.268;8.694;2024-02-21T03:37:53;100336.25;;;5.92;100.00
77979;BME280;67169;50.268;8.694;2024-02-21T03:40:20;100334.50;;;5.85;100.00
77979;BME280;67169;50.268;8.694;2024-02-21T03:42:46;100331.81;;;5.88;100.00
77979;BME280;67169;50.268;8.694;2024-02-21T03:45:13;100322.97;;;5.86;100.00
77979;BME280;67169;50.268;8.694;2024-02-21T03:47:39;100318.56;;;5.82;100.00
77979;BME280;67169;50.268;8.694;2024-02-21T03:50:08;100329.28;;;5.76;100.00
77979;BME280;67169;50.268;8.694;2024-02-21T03:52:34;100326.66;;;5.69;100.00
77979;BME280;67169;50.268;8.694;2024-02-21T03:55:01;100330.28;;;5.64;100.00
77979;BME280;67169;50.268;8.694;2024-02-21T03:57:27;100331.22;;;5.61;100.00
77979;BME280;67169;50.268;8.694;2024-02-21T03:59:54;100333.06;;;5.52;100.00
77979;BME280;67169;50.268;8.694;2024-02-21T04:02:20;100343.75;;;5.48;100.00
77979;BME280;67169;50.268;8.694;2024-02-21T04:04:47;100339.25;;;5.54;100.00
77979;BME280;67169;50.268;8.694;2024-02-21T04:07:15;100328.59;;;5.55;100.00
77979;BME280;67169;50.268;8.694;2024-02-21T04:09:42;100337.50;;;5.53;100.00
77979;BME280;67169;50.268;8.694;2024-02-21T04:12:08;100320.59;;;5.52;100.00
77979;BME280;67169;50.268;8.694;2024-02-21T04:14:35;100343.66;;;5.59;100.00
77979;BME280;67169;50.268;8.694;2024-02-21T04:17:01;100326.75;;;5.62;100.00
77979;BME280;67169;50.268;8.694;2024-02-21T04:19:28;100317.91;;;5.55;100.00
77979;BME280;67169;50.268;8.694;2024-02-21T04:21:56;100334.66;;;5.71;100.00
77979;BME280;67169;50.268;8.694;2024-02-21T04:24:24;100322.13;;;5.78;100.00
77979;BME280;67169;50.268;8.694;2024-02-21T04:26:50;100309.66;;;5.83;100.00
77979;BME280;67169;50.268;8.694;2024-02-21T04:29:17;100272.41;;;5.67;100.00
77979;BME280;67169;50.268;8.694;2024-02-21T04:31:43;100288.28;;;5.83;100.00
77979;BME280;67169;50.268;8.694;2024-02-21T04:34:10;100281.19;;;5.80;100.00
77979;BME280;67169;50.268;8.694;2024-02-21T04:36:37;100291.84;;;5.83;100.00
77979;BME280;67169;50.268;8.694;2024-02-21T04:39:03;100288.34;;;5.77;100.00
77979;BME280;67169;50.268;8.694;2024-02-21T04:41:31;100295.38;;;5.84;100.00
77979;BME280;67169;50.268;8.694;2024-02-21T04:43:58;100298.06;;;5.85;100.00
77979;BME280;67169;50.268;8.694;2024-02-21T04:46:24;100300.72;;;5.84;100.00
77979;BME280;67169;50.268;8.694;2024-02-21T04:48:51;100297.16;;;5.85;100.00
77979;BME280;67169;50.268;8.694;2024-02-21T04:51:17;100300.72;;;5.85;100.00
77979;BME280;67169;50.268;8.694;2024-02-21T04:53:44;100297.13;;;5.88;100.00
77979;BME280;67169;50.268;8.694;2024-02-21T04:56:10;100298.03;;;5.88;100.00
77979;BME280;67169;50.268;8.694;2024-02-21T04:58:39;100269.63;;;5.80;100.00
77979;BME280;67169;50.268;8.694;2024-02-21T05:01:05;100285.53;;;5.90;100.00
77979;BME280;67169;50.268;8.694;2024-02-21T05:03:33;100281.97;;;5.90;100.00
77979;BME280;67169;50.268;8.694;2024-02-21T05:05:59;100278.44;;;5.92;100.00
77979;BME280;67169;50.268;8.694;2024-02-21T05:08:26;100282.88;;;5.93;100.00
77979;BME280;67169;50.268;8.694;2024-02-21T05:10:52;100281.94;;;5.91;100.00
77979;BME280;67169;50.268;8.694;2024-02-21T05:13:19;100265.16;;;5.83;100.00
77979;BME280;67169;50.268;8.694;2024-02-21T05:15:47;100283.78;;;5.92;100.00
77979;BME280;67169;50.268;8.694;2024-02-21T05:18:13;100282.88;;;5.93;100.00
77979;BME280;67169;50.268;8.694;2024-02-21T05:20:39;100281.06;;;5.91;100.00
77979;BME280;67169;50.268;8.694;2024-02-21T05:23:06;100288.22;;;5.92;100.00
77979;BME280;67169;50.268;8.694;2024-02-21T05:25:32;100295.34;;;5.93;100.00
77979;BME280;67169;50.268;8.694;2024-02-21T05:27:59;100288.19;;;5.95;100.00
77979;BME280;67169;50.268;8.694;2024-02-21T05:30:27;100282.88;;;5.93;100.00
77979;BME280;67169;50.268;8.694;2024-02-21T05:32:55;100281.13;;;5.85;100.00
77979;BME280;67169;50.268;8.694;2024-02-21T05:35:25;100297.09;;;5.91;100.00
77979;BME280;67169;50.268;8.694;2024-02-21T05:37:51;100285.56;;;5.89;100.00
77979;BME280;67169;50.268;8.694;2024-02-21T05:40:18;100289.09;;;5.91;100.00
77979;BME280;67169;50.268;8.694;2024-02-21T05:42:45;100286.41;;;5.91;100.00
77979;BME280;67169;50.268;8.694;2024-02-21T05:45:11;100281.94;;;5.91;100.00
77979;BME280;67169;50.268;8.694;2024-02-21T05:47:38;100276.66;;;5.90;100.00
77979;BME280;67169;50.268;8.694;2024-02-21T05:50:06;100273.97;;;5.90;100.00
77979;BME280;67169;50.268;8.694;2024-02-21T05:52:33;100264.22;;;5.87;100.00
77979;BME280;67169;50.268;8.694;2024-02-21T05:55:00;100247.38;;;5.81;100.00
77979;BME280;67169;50.268;8.694;2024-02-21T05:57:27;100230.63;;;5.68;100.00
77979;BME280;67169;50.268;8.694;2024-02-21T05:59:53;100241.34;;;5.63;100.00
77979;BME280;67169;50.268;8.694;2024-02-21T06:02:19;100229.00;;;5.55;100.00
77979;BME280;67169;50.268;8.694;2024-02-21T06:04:46;100241.44;;;5.54;100.00
77979;BME280;67169;50.268;8.694;2024-02-21T06:07:14;100214.78;;;5.50;100.00
77979;BME280;67169;50.268;8.694;2024-02-21T06:09:41;100226.34;;;5.50;100.00
77979;BME280;67169;50.268;8.694;2024-02-21T06:12:07;100201.63;;;5.33;100.00
77979;BME280;67169;50.268;8.694;2024-02-21T06:14:34;100188.28;;;5.33;100.00
77979;BME280;67169;50.268;8.694;2024-02-21T06:17:00;100194.44;;;5.41;100.00
77979;BME280;67169;50.268;8.694;2024-02-21T06:19:27;100207.75;;;5.44;100.00
77979;BME280;67169;50.268;8.694;2024-02-21T06:21:54;100214.88;;;5.42;100.00
77979;BME280;67169;50.268;8.694;2024-02-21T06:24:21;100215.78;;;5.41;100.00
77979;BME280;67169;50.268;8.694;2024-02-21T06:26:48;100213.13;;;5.41;100.00
77979;BME280;67169;50.268;8.694;2024-02-21T06:29:14;100212.25;;;5.39;100.00
77979;BME280;67169;50.268;8.694;2024-02-21T06:31:41;100212.28;;;5.34;100.00
77979;BME280;67169;50.268;8.694;2024-02-21T06:34:07;100210.56;;;5.30;100.00
77979;BME280;67169;50.268;8.694;2024-02-21T06:36:34;100218.56;;;5.30;100.00
77979;BME280;67169;50.268;8.694;2024-02-21T06:39:00;100216.78;;;5.26;100.00
77979;BME280;67169;50.268;8.694;2024-02-21T06:41:31;100215.06;;;5.23;100.00
77979;BME280;67169;50.268;8.694;2024-02-21T06:43:59;100194.75;;;5.07;100.00
77979;BME280;67169;50.268;8.694;2024-02-21T06:46:26;100208.06;;;5.10;100.00
77979;BME280;67169;50.268;8.694;2024-02-21T06:48:54;100222.19;;;5.21;100.00
77979;BME280;67169;50.268;8.694;2024-02-21T06:51:21;100208.84;;;5.21;100.00
77979;BME280;67169;50.268;8.694;2024-02-21T06:53:48;100212.41;;;5.22;100.00
77979;BME280;67169;50.268;8.694;2024-02-21T06:56:14;100209.75;;;5.20;100.00
77979;BME280;67169;50.268;8.694;2024-02-21T06:58:42;100213.28;;;5.22;100.00
77979;BME280;67169;50.268;8.694;2024-02-21T07:01:08;100228.38;;;5.27;100.00
77979;BME280;67169;50.268;8.694;2024-02-21T07:03:35;100230.09;;;5.31;100.00
77979;BME280;67169;50.268;8.694;2024-02-21T07:06:02;100222.78;;;5.53;100.00
77979;BME280;67169;50.268;8.694;2024-02-21T07:08:28;100228.59;;;5.93;100.00
77979;BME280;67169;50.268;8.694;2024-02-21T07:10:55;100227.03;;;6.43;100.00
77979;BME280;67169;50.268;8.694;2024-02-21T07:13:21;100210.19;;;6.41;99.72
77979;BME280;67169;50.268;8.694;2024-02-21T07:15:52;100202.78;;;5.92;99.56
77979;BME280;67169;50.268;8.694;2024-02-21T07:18:18;100203.81;;;5.77;99.63
77979;BME280;67169;50.268;8.694;2024-02-21T07:20:45;100196.66;;;5.82;99.82
77979;BME280;67169;50.268;8.694;2024-02-21T07:23:13;100199.31;;;5.81;99.61
77979;BME280;67169;50.268;8.694;2024-02-21T07:25:40;100193.19;;;5.76;99.54
77979;BME280;67169;50.268;8.694;2024-02-21T07:28:06;100194.88;;;5.81;99.31
77979;BME280;67169;50.268;8.694;2024-02-21T07:30:34;100204.50;;;5.99;99.25
77979;BME280;67169;50.268;8.694;2024-02-21T07:33:02;100206.25;;;5.99;98.81
77979;BME280;67169;50.268;8.694;2024-02-21T07:35:28;100200.94;;;5.97;98.26
77979;BME280;67169;50.268;8.694;2024-02-21T07:37:55;100202.56;;;6.10;98.04
77979;BME280;67169;50.268;8.694;2024-02-21T07:40:21;100195.47;;;6.09;97.78
77979;BME280;67169;50.268;8.694;2024-02-21T07:42:48;100197.00;;;6.26;96.80
77979;BME280;67169;50.268;8.694;2024-02-21T07:45:14;100186.41;;;6.21;96.31
77979;BME280;67169;50.268;8.694;2024-02-21T07:47:41;100188.13;;;6.27;95.95
77979;BME280;67169;50.268;8.694;2024-02-21T07:50:09;100193.44;;;6.28;95.43
77979;BME280;67169;50.268;8.694;2024-02-21T07:52:36;100188.13;;;6.27;94.63
77979;BME280;67169;50.268;8.694;2024-02-21T07:55:03;100159.78;;;6.16;94.13
77979;BME280;67169;50.268;8.694;2024-02-21T07:57:30;100178.16;;;6.38;94.30
77979;BME280;67169;50.268;8.694;2024-02-21T07:59:56;100171.03;;;6.38;93.57
77979;BME280;67169;50.268;8.694;2024-02-21T08:02:23;100174.47;;;6.45;93.39
77979;BME280;67169;50.268;8.694;2024-02-21T08:04:49;100171.78;;;6.48;93.06
77979;BME280;67169;50.268;8.694;2024-02-21T08:07:17;100169.81;;;6.61;92.81
77979;BME280;67169;50.268;8.694;2024-02-21T08:09:43;100169.41;;;6.85;92.50
77979;BME280;67169;50.268;8.694;2024-02-21T08:12:10;100144.75;;;6.66;91.88
77979;BME280;67169;50.268;8.694;2024-02-21T08:14:36;100155.31;;;6.76;91.32
77979;BME280;67169;50.268;8.694;2024-02-21T08:17:03;100140.25;;;6.70;90.64
77979;BME280;67169;50.268;8.694;2024-02-21T08:19:30;100116.44;;;6.55;90.64
77979;BME280;67169;50.268;8.694;2024-02-21T08:21:56;100137.38;;;6.81;90.13
77979;BME280;67169;50.268;8.694;2024-02-21T08:24:24;100126.78;;;6.76;89.34
77979;BME280;67169;50.268;8.694;2024-02-21T08:26:51;100122.41;;;6.72;89.22
77979;BME280;67169;50.268;8.694;2024-02-21T08:29:17;100110.78;;;6.75;89.28
77979;BME280;67169;50.268;8.694;2024-02-21T08:31:43;100117.75;;;6.85;89.24
77979;BME280;67169;50.268;8.694;2024-02-21T08:34:10;100111.63;;;6.78;89.05
77979;BME280;67169;50.268;8.694;2024-02-21T08:36:38;100110.66;;;6.81;88.76
77979;BME280;67169;50.268;8.694;2024-02-21T08:39:04;100116.19;;;6.70;88.53
77979;BME280;67169;50.268;8.694;2024-02-21T08:41:32;100110.75;;;6.76;88.52
77979;BME280;67169;50.268;8.694;2024-02-21T08:43:59;100109.78;;;6.80;88.39
77979;BME280;67169;50.268;8.694;2024-02-21T08:46:26;100109.03;;;6.71;88.29
77979;BME280;67169;50.268;8.694;2024-02-21T08:48:54;100090.41;;;6.68;88.08
77979;BME280;67169;50.268;8.694;2024-02-21T08:51:21;100093.03;;;6.69;87.72
77979;BME280;67169;50.268;8.694;2024-02-21T08:53:47;100068.16;;;6.64;87.68
77979;BME280;67169;50.268;8.694;2024-02-21T08:56:14;100016.84;;;6.45;88.18
77979;BME280;67169;50.268;8.694;2024-02-21T08:58:42;100081.66;;;7.07;87.96
77979;BME280;67169;50.268;8.694;2024-02-21T09:01:08;100074.44;;;7.12;87.84
77979;BME280;67169;50.268;8.694;2024-02-21T09:03:36;100077.03;;;7.16;88.05
77979;BME280;67169;50.268;8.694;2024-02-21T09:06:04;100071.38;;;6.86;87.92
77979;BME280;67169;50.268;8.694;2024-02-21T09:08:30;100066.03;;;6.84;88.20
77979;BME280;67169;50.268;8.694;2024-02-21T09:10:57;100038.66;;;6.72;87.94
77979;BME280;67169;50.268;8.694;2024-02-21T09:13:23;100038.66;;;6.70;87.16
77979;BME280;67169;50.268;8.694;2024-02-21T09:15:51;100055.31;;;6.86;86.85
77979;BME280;67169;50.268;8.694;2024-02-21T09:18:18;100055.19;;;6.94;86.81
77979;BME280;67169;50.268;8.694;2024-02-21T09:20:44;100025.06;;;6.84;86.35
77979;BME280;67169;50.268;8.694;2024-02-21T09:23:13;100041.88;;;6.90;86.54
77979;BME280;67169;50.268;8.694;2024-02-21T09:25:39;100047.31;;;6.86;86.33
77979;BME280;67169;50.268;8.694;2024-02-21T09:28:06;100053.44;;;6.93;86.30
77979;BME280;67169;50.268;8.694;2024-02-21T09:30:32;100051.47;;;7.02;85.95
77979;BME280;67169;50.268;8.694;2024-02-21T09:33:00;100054.00;;;7.08;86.08
77979;BME280;67169;50.268;8.694;2024-02-21T09:35:27;100047.78;;;7.08;85.44
77979;BME280;67169;50.268;8.694;2024-02-21T09:37:54;100027.72;;;7.29;85.18
77979;BME280;67169;50.268;8.694;2024-02-21T09:40:20;100033.78;;;7.40;84.62
77979;BME280;67169;50.268;8.694;2024-02-21T09:42:48;100042.47;;;7.50;84.48
77979;BME280;67169;50.268;8.694;2024-02-21T09:45:20;100044.94;;;7.60;84.33
77979;BME280;67169;50.268;8.694;2024-02-21T09:48:02;100042.03;;;7.71;84.22
77979;BME280;67169;50.268;8.694;2024-02-21T09:50:34;100018.66;;;7.37;83.88
77979;BME280;67169;50.268;8.694;2024-02-21T09:53:02;100033.94;;;7.73;83.69
77979;BME280;67169;50.268;8.694;2024-02-21T09:55:29;100026.91;;;7.69;83.50
77979;BME280;67169;50.268;8.694;2024-02-21T09:57:58;100017.41;;;7.54;83.35
77979;BME280;67169;50.268;8.694;2024-02-21T10:00:25;99967.56;;;7.48;83.20
77979;BME280;67169;50.268;8.694;2024-02-21T10:02:53;100042.94;;;8.09;82.58
77979;BME280;67169;50.268;8.694;2024-02-21T10:05:21;100021.91;;;7.92;81.85
77979;BME280;67169;50.268;8.694;2024-02-21T10:07:50;100017.69;;;8.19;81.94
77979;BME280;67169;50.268;8.694;2024-02-21T10:10:18;100029.63;;;8.04;81.58
77979;BME280;67169;50.268;8.694;2024-02-21T10:12:50;100019.09;;;7.98;81.75
77979;BME280;67169;50.268;8.694;2024-02-21T10:15:20;100007.13;;;8.13;81.60
77979;BME280;67169;50.268;8.694;2024-02-21T10:17:47;100007.22;;;8.46;81.50
77979;BME280;67169;50.268;8.694;2024-02-21T10:20:13;99980.47;;;8.07;81.22
77979;BME280;67169;50.268;8.694;2024-02-21T10:22:42;99988.03;;;8.27;81.47
77979;BME280;67169;50.268;8.694;2024-02-21T10:25:08;99991.66;;;7.87;82.05
77979;BME280;67169;50.268;8.694;2024-02-21T10:27:36;99989.94;;;8.22;82.27
77979;BME280;67169;50.268;8.694;2024-02-21T10:30:03;99985.97;;;8.38;81.83
77979;BME280;67169;50.268;8.694;2024-02-21T10:32:30;99970.50;;;8.14;81.56
77979;BME280;67169;50.268;8.694;2024-02-21T10:35:01;99973.38;;;8.06;81.06
77979;BME280;67169;50.268;8.694;2024-02-21T10:37:29;99970.19;;;8.26;81.86
77979;BME280;67169;50.268;8.694;2024-02-21T10:39:58;99963.59;;;8.03;81.39
77979;BME280;67169;50.268;8.694;2024-02-21T10:42:29;99973.72;;;8.28;81.56
77979;BME280;67169;50.268;8.694;2024-02-21T10:45:00;99962.06;;;7.93;81.14
77979;BME280;67169;50.268;8.694;2024-02-21T10:47:30;99963.66;;;8.02;81.28
77979;BME280;67169;50.268;8.694;2024-02-21T10:50:02;99948.88;;;7.84;80.61
77979;BME280;67169;50.268;8.694;2024-02-21T10:52:48;99953.91;;;7.98;80.68
77979;BME280;67169;50.268;8.694;2024-02-21T10:55:20;99945.53;;;8.12;80.67
77979;BME280;67169;50.268;8.694;2024-02-21T10:57:49;99959.72;;;8.17;80.69
77979;BME280;67169;50.268;8.694;2024-02-21T11:00:17;99941.47;;;8.31;80.15
77979;BME280;67169;50.268;8.694;2024-02-21T11:02:44;99945.47;;;8.50;79.93
77979;BME280;67169;50.268;8.694;2024-02-21T11:05:11;99935.72;;;8.46;79.66
77979;BME280;67169;50.268;8.694;2024-02-21T11:07:39;99930.91;;;8.25;79.41
77979;BME280;67169;50.268;8.694;2024-02-21T11:10:22;99933.19;;;8.42;79.69
77979;BME280;67169;50.268;8.694;2024-02-21T11:12:49;99920.47;;;8.50;79.85
77979;BME280;67169;50.268;8.694;2024-02-21T11:15:15;99898.44;;;8.70;79.36
77979;BME280;67169;50.268;8.694;2024-02-21T11:17:42;99908.91;;;8.46;79.15
77979;BME280;67169;50.268;8.694;2024-02-21T11:20:20;99882.97;;;8.48;78.70
77979;BME280;67169;50.268;8.694;2024-02-21T11:22:47;99885.44;;;8.56;78.45
77979;BME280;67169;50.268;8.694;2024-02-21T11:25:22;99877.59;;;8.48;78.42
77979;BME280;67169;50.268;8.694;2024-02-21T11:27:49;99879.88;;;8.95;77.87
77979;BME280;67169;50.268;8.694;2024-02-21T11:30:16;99868.94;;;8.71;77.93
77979;BME280;67169;50.268;8.694;2024-02-21T11:32:47;99874.22;;;8.74;78.01
77979;BME280;67169;50.268;8.694;2024-02-21T11:35:19;99865.88;;;8.84;77.50
77979;BME280;67169;50.268;8.694;2024-02-21T11:37:45;99855.09;;;9.15;77.15
77979;BME280;67169;50.268;8.694;2024-02-21T11:40:13;99856.81;;;8.88;76.62
77979;BME280;67169;50.268;8.694;2024-02-21T11:42:41;99844.59;;;9.07;77.12
77979;BME280;67169;50.268;8.694;2024-02-21T11:45:08;99856.72;;;9.48;76.64
77979;BME280;67169;50.268;8.694;2024-02-21T11:47:35;99830.31;;;9.07;75.55
77979;BME280;67169;50.268;8.694;2024-02-21T11:50:04;99860.94;;;9.29;75.40
77979;BME280;67169;50.268;8.694;2024-02-21T11:52:31;99838.53;;;9.30;76.25
77979;BME280;67169;50.268;8.694;2024-02-21T11:54:57;99839.66;;;9.51;76.08
77979;BME280;67169;50.268;8.694;2024-02-21T11:57:29;99825.06;;;9.32;75.90
77979;BME280;67169;50.268;8.694;2024-02-21T11:59:57;99833.69;;;9.41;75.72
77979;BME280;67169;50.268;8.694;2024-02-21T12:02:24;99826.22;;;9.23;75.41
77979;BME280;67169;50.268;8.694;2024-02-21T12:04:50;99818.88;;;9.30;76.04
77979;BME280;67169;50.268;8.694;2024-02-21T12:07:21;99814.38;;;9.30;76.13
77979;BME280;67169;50.268;8.694;2024-02-21T12:09:48;99818.72;;;9.34;76.37
77979;BME280;67169;50.268;8.694;2024-02-21T12:12:19;99791.47;;;9.18;75.79
77979;BME280;67169;50.268;8.694;2024-02-21T12:14:46;99797.34;;;9.31;75.85
77979;BME280;67169;50.268;8.694;2024-02-21T12:17:14;99787.47;;;9.03;76.21
77979;BME280;67169;50.268;8.694;2024-02-21T12:19:41;99800.75;;;9.08;76.52
77979;BME280;67169;50.268;8.694;2024-02-21T12:22:07;99788.94;;;8.86;77.02
77979;BME280;67169;50.268;8.694;2024-02-21T12:24:33;99784.00;;;8.72;77.43
77979;BME280;67169;50.268;8.694;2024-02-21T12:27:01;99777.53;;;8.79;77.49
77979;BME280;67169;50.268;8.694;2024-02-21T12:29:28;99770.97;;;8.88;77.43
77979;BME280;67169;50.268;8.694;2024-02-21T12:31:55;99783.59;;;8.84;77.68
77979;BME280;67169;50.268;8.694;2024-02-21T12:34:24;99727.50;;;8.78;77.71
77979;BME280;67169;50.268;8.694;2024-02-21T12:36:52;99755.16;;;9.35;76.98
77979;BME280;67169;50.268;8.694;2024-02-21T12:39:18;99745.75;;;9.21;76.49
77979;BME280;67169;50.268;8.694;2024-02-21T12:41:44;99731.38;;;9.24;75.97
77979;BME280;67169;50.268;8.694;2024-02-21T12:44:11;99732.19;;;9.52;75.93
77979;BME280;67169;50.268;8.694;2024-02-21T12:46:38;99722.69;;;9.42;75.77
77979;BME280;67169;50.268;8.694;2024-02-21T12:49:05;99732.28;;;9.49;75.51
77979;BME280;67169;50.268;8.694;2024-02-21T12:51:34;99724.03;;;9.56;74.76
77979;BME280;67169;50.268;8.694;2024-02-21T12:54:01;99721.63;;;9.21;74.88
77979;BME280;67169;50.268;8.694;2024-02-21T12:56:28;99716.50;;;9.14;75.33
77979;BME280;67169;50.268;8.694;2024-02-21T12:58:56;99718.56;;;9.32;75.26